Time;durP1;ratioP1;P1;durP2;ratioP2;P2;SDS_P1;SDS_P2;PMS_P1;PMS_P2;Temp;Humidity;BMP_temperature;BMP_pressure;BME280_temperature;BME280_humidity;BME280_pressure;Samples;Min_cycle;Max_cycle;Signal;HPM_P1;HPM_P2
2023/02/16 00:01:55;;;;;;;17.50;15.82;;;;;;;;;;4997767;28;20064;-55
2023/02/16 00:04:23;;;;;;;16.70;14.93;;;;;;;;;;4992373;28;20456;-54
2023/02/16 00:06:49;;;;;;;14.38;13.20;;;;;;;;;;4998893;28;20369;-54
2023/02/16 00:09:15;;;;;;;14.75;13.52;;;;;;;;;;4995298;28;20042;-52
2023/02/16 00:14:26;;;;;;;16.65;15.30;;;;;;;;;;4997127;28;20049;-55
2023/02/16 00:16:53;;;;;;;17.15;15.75;;;;;;;;;;4996967;28;20550;-54
2023/02/16 00:19:25;;;;;;;15.75;14.63;;;;;;;;;;4995710;28;20030;-57
2023/02/16 00:21:57;;;;;;;18.33;16.65;;;;;;;;;;4996748;28;20116;-54
2023/02/16 00:24:23;;;;;;;16.80;15.50;;;;;;;;;;4994609;28;20113;-54
2023/02/16 00:26:49;;;;;;;16.98;15.30;;;;;;;;;;4996841;28;20045;-55
2023/02/16 00:29:25;;;;;;;16.90;15.48;;;;;;;;;;4995109;28;20140;-52
2023/02/16 00:31:51;;;;;;;16.10;14.75;;;;;;;;;;4991797;28;20137;-55
2023/02/16 00:34:23;;;;;;;17.70;15.45;;;;;;;;;;4992563;28;20083;-55
2023/02/16 00:36:49;;;;;;;16.58;15.02;;;;;;;;;;4994935;28;20034;-53
2023/02/16 00:39:14;;;;;;;15.43;14.18;;;;;;;;;;4995349;28;20492;-54
2023/02/16 00:41:52;;;;;;;16.75;15.35;;;;;;;;;;4995970;28;20045;-55
2023/02/16 00:44:41;;;;;;;18.27;16.33;;;;;;;;;;4994424;28;20087;-55
2023/02/16 00:47:15;;;;;;;16.17;14.88;;;;;;;;;;4995897;28;20115;-53
2023/02/16 00:49:40;;;;;;;21.10;15.02;;;;;;;;;;4995187;28;20069;-51
2023/02/16 00:52:21;;;;;;;17.02;15.65;;;;;;;;;;4996910;28;20428;-55
2023/02/16 00:54:47;;;;;;;19.77;16.35;;;;;;;;;;4993534;28;20022;-54
2023/02/16 00:57:17;;;;;;;17.42;15.98;;;;;;;;;;4997348;28;20030;-55
2023/02/16 00:59:42;;;;;;;21.33;14.88;;;;;;;;;;4997052;28;20038;-54
2023/02/16 01:02:08;;;;;;;16.60;15.02;;;;;;;;;;4996679;28;20092;-56
2023/02/16 01:04:33;;;;;;;16.42;14.93;;;;;;;;;;4996077;28;20454;-55
2023/02/16 01:12:27;;;;;;;17.77;16.10;;;;;;;;;;4996894;28;20669;-55
2023/02/16 01:14:54;;;;;;;17.33;15.93;;;;;;;;;;4994455;28;20266;-55
2023/02/16 01:17:19;;;;;;;15.52;14.13;;;;;;;;;;4994158;28;20379;-54
2023/02/16 01:19:44;;;;;;;16.08;14.27;;;;;;;;;;4995707;28;20034;-54
2023/02/16 01:22:10;;;;;;;13.60;12.70;;;;;;;;;;4997597;28;20464;-52
2023/02/16 01:24:35;;;;;;;16.17;14.85;;;;;;;;;;4994750;28;20473;-55
2023/02/16 01:27:01;;;;;;;16.25;14.82;;;;;;;;;;4995862;28;20624;-53
2023/02/16 01:29:26;;;;;;;17.70;16.33;;;;;;;;;;4992127;28;20045;-55
2023/02/16 01:31:51;;;;;;;18.63;16.80;;;;;;;;;;4995980;28;20121;-53
2023/02/16 01:34:17;;;;;;;15.38;14.27;;;;;;;;;;4997795;28;20113;-52
2023/02/16 01:36:45;;;;;;;15.80;14.48;;;;;;;;;;4994560;28;20041;-53
2023/02/16 01:39:13;;;;;;;15.20;13.95;;;;;;;;;;4993628;28;20568;-54
2023/02/16 01:42:22;;;;;;;17.00;14.77;;;;;;;;;;4996055;28;20056;-54
2023/02/16 01:44:57;;;;;;;17.52;15.82;;;;;;;;;;4994330;28;20040;-53
2023/02/16 01:47:35;;;;;;;17.00;14.27;;;;;;;;;;4995302;28;20065;-54
2023/02/16 01:50:13;;;;;;;14.23;13.23;;;;;;;;;;4994619;28;20030;-53
2023/02/16 01:52:42;;;;;;;19.05;16.27;;;;;;;;;;4993740;28;20468;-54
2023/02/16 01:55:18;;;;;;;16.38;14.80;;;;;;;;;;4993183;28;20863;-55
2023/02/16 01:57:53;;;;;;;17.15;14.90;;;;;;;;;;4995799;28;20052;-53
2023/02/16 02:00:48;;;;;;;18.58;15.75;;;;;;;;;;4994128;28;20042;-54
2023/02/16 02:06:01;;;;;;;14.30;13.13;;;;;;;;;;4994692;28;20103;-53
2023/02/16 02:08:47;;;;;;;18.85;16.92;;;;;;;;;;4995751;28;20455;-53
2023/02/16 02:11:20;;;;;;;15.93;14.45;;;;;;;;;;4996574;28;20053;-54
2023/02/16 02:13:57;;;;;;;17.80;16.40;;;;;;;;;;4994001;28;20368;-53
2023/02/16 02:16:24;;;;;;;17.33;15.73;;;;;;;;;;4995188;28;20085;-53
2023/02/16 02:18:50;;;;;;;18.23;16.83;;;;;;;;;;4997147;28;20421;-53
2023/02/16 02:24:38;;;;;;;15.98;14.63;;;;;;;;;;4995638;28;20038;-55
2023/02/16 02:27:17;;;;;;;19.80;16.25;;;;;;;;;;5001304;28;20205;-51
2023/02/16 02:29:48;;;;;;;14.85;13.85;;;;;;;;;;4995632;28;20215;-54
2023/02/16 02:32:34;;;;;;;14.88;13.45;;;;;;;;;;4994995;28;20052;-53
2023/02/16 02:35:22;;;;;;;13.43;12.43;;;;;;;;;;4992755;28;20417;-53
2023/02/16 02:38:01;;;;;;;16.50;15.07;;;;;;;;;;4994321;28;20531;-55
2023/02/16 02:40:26;;;;;;;22.27;14.25;;;;;;;;;;4996510;28;20034;-53
2023/02/16 02:43:40;;;;;;;15.23;14.18;;;;;;;;;;4995397;28;20040;-53
2023/02/16 02:46:19;;;;;;;14.07;13.07;;;;;;;;;;4981759;28;20054;-52
2023/02/16 02:48:45;;;;;;;17.63;15.80;;;;;;;;;;4994945;28;20159;-52
2023/02/16 02:51:27;;;;;;;16.70;15.48;;;;;;;;;;4995413;28;20038;-53
2023/02/16 03:02:59;;;;;;;15.35;13.90;;;;;;;;;;4993226;28;20034;-54
2023/02/16 03:05:28;;;;;;;14.73;13.35;;;;;;;;;;4992527;28;20045;-52
2023/02/16 03:08:05;;;;;;;15.57;14.15;;;;;;;;;;4992979;28;20034;-55
2023/02/16 03:13:35;;;;;;;12.93;11.93;;;;;;;;;;4997911;28;20538;-51
2023/02/16 03:16:05;;;;;;;13.90;12.88;;;;;;;;;;4995969;28;20041;-52
2023/02/16 03:29:36;;;;;;;13.25;12.23;;;;;;;;;;4996400;28;20038;-53
2023/02/16 03:32:01;;;;;;;15.23;13.80;;;;;;;;;;4995496;28;20034;-51
2023/02/16 03:34:28;;;;;;;14.32;12.52;;;;;;;;;;4997050;28;20049;-54
2023/02/16 03:36:57;;;;;;;13.50;12.50;;;;;;;;;;4999500;28;20026;-54
2023/02/16 03:39:24;;;;;;;14.00;12.90;;;;;;;;;;5002077;28;20038;-52
2023/02/16 03:41:51;;;;;;;13.90;12.93;;;;;;;;;;4997839;28;20050;-53
2023/02/16 03:44:17;;;;;;;14.68;12.88;;;;;;;;;;4996020;28;20593;-53
2023/02/16 03:46:43;;;;;;;15.43;14.02;;;;;;;;;;4998866;28;20038;-53
2023/02/16 03:49:08;;;;;;;15.05;13.85;;;;;;;;;;4998672;28;20042;-53
2023/02/16 03:51:34;;;;;;;14.82;13.82;;;;;;;;;;4995197;28;20030;-53
2023/02/16 03:53:59;;;;;;;16.23;14.63;;;;;;;;;;4997988;28;20103;-52
2023/02/16 03:56:25;;;;;;;15.85;14.52;;;;;;;;;;4995711;28;20041;-51
2023/02/16 03:58:50;;;;;;;13.82;12.48;;;;;;;;;;4999172;28;20063;-53
2023/02/16 04:01:16;;;;;;;15.90;14.52;;;;;;;;;;4996142;28;20128;-54
2023/02/16 04:03:41;;;;;;;12.88;11.98;;;;;;;;;;4995389;28;20034;-54
2023/02/16 04:06:07;;;;;;;16.05;13.45;;;;;;;;;;4996065;28;20119;-54
2023/02/16 04:08:33;;;;;;;15.70;14.32;;;;;;;;;;4995599;28;20093;-53
2023/02/16 04:10:59;;;;;;;15.20;13.80;;;;;;;;;;4995963;28;20038;-54
2023/02/16 04:13:24;;;;;;;12.68;11.82;;;;;;;;;;4998703;28;20033;-54
2023/02/16 04:15:50;;;;;;;14.52;13.13;;;;;;;;;;4997256;28;20022;-52
2023/02/16 04:18:15;;;;;;;14.95;13.95;;;;;;;;;;4996936;28;20030;-54
2023/02/16 04:20:41;;;;;;;25.10;14.00;;;;;;;;;;4997463;28;20442;-54
2023/02/16 04:23:07;;;;;;;13.75;12.75;;;;;;;;;;4994602;28;20041;-54
2023/02/16 04:25:32;;;;;;;14.73;13.23;;;;;;;;;;4998448;28;20037;-55
2023/02/16 04:27:58;;;;;;;14.02;13.10;;;;;;;;;;4995141;28;20041;-54
2023/02/16 04:30:26;;;;;;;13.60;12.50;;;;;;;;;;4994768;28;20046;-54
2023/02/16 04:32:52;;;;;;;13.85;12.85;;;;;;;;;;5005777;28;20100;-54
2023/02/16 04:35:18;;;;;;;14.90;13.80;;;;;;;;;;4997757;28;20030;-53
2023/02/16 04:37:44;;;;;;;14.63;13.32;;;;;;;;;;4996608;28;20057;-54
2023/02/16 04:40:15;;;;;;;14.88;13.75;;;;;;;;;;4997744;28;20062;-53
2023/02/16 04:42:41;;;;;;;16.25;15.02;;;;;;;;;;4995870;28;20088;-55
2023/02/16 04:45:07;;;;;;;15.82;14.52;;;;;;;;;;4996794;28;20037;-54
2023/02/16 04:47:33;;;;;;;15.30;14.18;;;;;;;;;;4996028;28;20042;-53
2023/02/16 04:49:58;;;;;;;13.30;11.98;;;;;;;;;;4995750;28;20117;-55
2023/02/16 04:52:23;;;;;;;12.45;11.45;;;;;;;;;;4995600;28;20061;-51
2023/02/16 04:54:49;;;;;;;13.60;12.32;;;;;;;;;;4991150;28;20084;-53
2023/02/16 04:57:15;;;;;;;14.55;13.55;;;;;;;;;;4992439;28;20062;-51
2023/02/16 04:59:40;;;;;;;18.95;11.95;;;;;;;;;;4996559;28;20030;-59
2023/02/16 05:02:06;;;;;;;15.32;13.88;;;;;;;;;;4993298;28;20439;-59
2023/02/16 05:04:32;;;;;;;12.75;11.75;;;;;;;;;;4994727;28;20121;-60
2023/02/16 05:06:58;;;;;;;13.30;12.40;;;;;;;;;;4995751;28;20040;-59
2023/02/16 05:09:23;;;;;;;14.77;13.20;;;;;;;;;;4997489;28;20376;-54
2023/02/16 05:14:40;;;;;;;12.82;11.82;;;;;;;;;;4991406;28;20034;-54
2023/02/16 05:17:08;;;;;;;12.40;11.35;;;;;;;;;;4992760;28;20391;-54
2023/02/16 05:19:33;;;;;;;15.00;13.90;;;;;;;;;;4993596;28;20042;-53
2023/02/16 05:21:59;;;;;;;13.27;12.15;;;;;;;;;;4993353;28;20444;-55
2023/02/16 05:24:24;;;;;;;14.38;13.05;;;;;;;;;;4995414;28;20336;-55
2023/02/16 05:26:49;;;;;;;12.27;11.50;;;;;;;;;;4996769;28;20116;-55
2023/02/16 05:29:15;;;;;;;13.65;12.27;;;;;;;;;;4992455;28;20038;-54
2023/02/16 05:31:40;;;;;;;13.95;13.02;;;;;;;;;;4995547;28;20038;-55
2023/02/16 05:34:05;;;;;;;13.70;12.60;;;;;;;;;;4991027;28;20056;-56
2023/02/16 05:36:31;;;;;;;13.45;12.35;;;;;;;;;;4994612;28;20445;-54
2023/02/16 05:38:56;;;;;;;13.20;12.13;;;;;;;;;;4995528;28;20041;-55
2023/02/16 05:41:24;;;;;;;13.80;12.80;;;;;;;;;;4993465;28;20377;-55
2023/02/16 05:43:52;;;;;;;12.35;11.45;;;;;;;;;;4992723;28;20030;-56
2023/02/16 05:46:18;;;;;;;12.80;11.85;;;;;;;;;;4992495;28;20549;-55
2023/02/16 05:48:44;;;;;;;15.38;14.00;;;;;;;;;;4992753;28;20034;-59
2023/02/16 05:51:09;;;;;;;13.18;12.23;;;;;;;;;;4993663;28;20065;-58
2023/02/16 05:53:34;;;;;;;16.70;15.10;;;;;;;;;;4995211;28;20129;-57
2023/02/16 05:56:00;;;;;;;15.52;13.98;;;;;;;;;;4994088;28;20730;-58
2023/02/16 05:58:25;;;;;;;12.70;11.70;;;;;;;;;;4994615;28;20026;-58
2023/02/16 06:00:51;;;;;;;15.10;13.48;;;;;;;;;;4983511;28;20392;-58
2023/02/16 06:03:17;;;;;;;14.25;13.15;;;;;;;;;;4995125;28;20057;-59
2023/02/16 06:05:42;;;;;;;12.93;11.93;;;;;;;;;;4994751;28;20524;-59
2023/02/16 06:08:07;;;;;;;13.15;12.25;;;;;;;;;;4995210;28;20050;-58
2023/02/16 06:10:33;;;;;;;13.48;12.38;;;;;;;;;;4993455;28;20038;-58
2023/02/16 06:12:58;;;;;;;13.45;12.55;;;;;;;;;;4994938;28;20089;-58
2023/02/16 06:15:23;;;;;;;12.82;11.90;;;;;;;;;;4995313;28;20113;-59
2023/02/16 06:17:49;;;;;;;13.20;12.30;;;;;;;;;;4995783;28;20038;-58
2023/02/16 06:20:14;;;;;;;13.63;12.52;;;;;;;;;;4993904;28;20518;-59
2023/02/16 06:22:39;;;;;;;14.32;13.23;;;;;;;;;;4992135;28;20081;-58
2023/02/16 06:25:05;;;;;;;13.07;12.07;;;;;;;;;;4995319;28;20042;-58
2023/02/16 06:27:30;;;;;;;12.00;11.20;;;;;;;;;;4991621;28;20052;-58
2023/02/16 06:29:55;;;;;;;14.50;13.40;;;;;;;;;;4992535;28;20042;-59
2023/02/16 06:32:21;;;;;;;15.10;13.70;;;;;;;;;;4993037;28;20049;-58
2023/02/16 06:34:46;;;;;;;14.00;12.85;;;;;;;;;;4994181;28;20043;-57
2023/02/16 06:37:12;;;;;;;13.23;12.25;;;;;;;;;;4994575;28;20081;-58
2023/02/16 06:39:37;;;;;;;13.80;12.68;;;;;;;;;;4993175;28;20045;-59
2023/02/16 06:42:02;;;;;;;12.63;11.70;;;;;;;;;;4993424;28;20045;-58
2023/02/16 06:44:28;;;;;;;12.00;11.10;;;;;;;;;;4993911;28;20073;-59
2023/02/16 06:46:53;;;;;;;13.80;11.52;;;;;;;;;;4996697;28;20038;-58
2023/02/16 06:49:19;;;;;;;11.73;10.95;;;;;;;;;;4994146;28;20038;-59
2023/02/16 06:51:46;;;;;;;12.57;11.52;;;;;;;;;;4991789;28;20496;-58
2023/02/16 06:54:12;;;;;;;12.18;11.27;;;;;;;;;;4994300;28;20042;-59
2023/02/16 06:56:37;;;;;;;12.05;11.25;;;;;;;;;;4992964;28;20041;-58
2023/02/16 06:59:03;;;;;;;13.80;12.57;;;;;;;;;;4994957;28;20530;-58
2023/02/16 07:01:29;;;;;;;12.48;11.57;;;;;;;;;;4994740;28;20447;-59
2023/02/16 07:03:55;;;;;;;12.63;11.73;;;;;;;;;;4993095;28;20608;-58
2023/02/16 07:06:23;;;;;;;12.85;11.93;;;;;;;;;;4994477;28;20041;-58
2023/02/16 07:08:49;;;;;;;12.15;11.25;;;;;;;;;;4994199;28;20417;-58
2023/02/16 07:11:14;;;;;;;11.48;10.73;;;;;;;;;;4994748;28;20036;-59
2023/02/16 07:13:40;;;;;;;11.90;11.07;;;;;;;;;;4992783;28;20657;-59
2023/02/16 07:16:06;;;;;;;12.32;11.43;;;;;;;;;;4994287;28;20128;-59
2023/02/16 07:18:32;;;;;;;11.90;11.10;;;;;;;;;;4992435;28;20042;-58
2023/02/16 07:20:58;;;;;;;12.85;11.63;;;;;;;;;;4993827;28;20035;-59
2023/02/16 07:23:24;;;;;;;12.38;11.52;;;;;;;;;;4993895;28;20068;-59
2023/02/16 07:25:50;;;;;;;13.18;11.98;;;;;;;;;;4991716;28;20045;-59
2023/02/16 07:28:15;;;;;;;15.00;13.73;;;;;;;;;;4992824;28;20074;-59
2023/02/16 07:30:41;;;;;;;13.00;11.88;;;;;;;;;;4989581;28;20078;-59
2023/02/16 07:33:06;;;;;;;13.50;12.50;;;;;;;;;;4992928;28;20569;-59
2023/02/16 07:35:32;;;;;;;12.43;11.43;;;;;;;;;;4991970;28;20041;-59
2023/02/16 07:37:58;;;;;;;15.23;13.63;;;;;;;;;;4992455;28;20467;-60
2023/02/16 07:40:24;;;;;;;12.52;11.55;;;;;;;;;;4994351;28;20046;-59
2023/02/16 07:42:49;;;;;;;14.52;13.43;;;;;;;;;;4992258;28;20050;-59
2023/02/16 07:45:14;;;;;;;13.10;12.05;;;;;;;;;;4992042;28;20499;-59
2023/02/16 07:47:40;;;;;;;12.48;11.60;;;;;;;;;;4992583;28;20511;-59
2023/02/16 07:50:06;;;;;;;15.15;13.95;;;;;;;;;;4993813;28;20038;-59
2023/02/16 07:52:31;;;;;;;13.13;12.18;;;;;;;;;;4992712;28;20379;-59
2023/02/16 07:55:00;;;;;;;12.55;11.75;;;;;;;;;;4990426;28;20038;-59
2023/02/16 07:57:27;;;;;;;12.73;11.80;;;;;;;;;;4992683;28;20544;-59
2023/02/16 07:59:52;;;;;;;13.13;12.10;;;;;;;;;;4993935;28;20042;-58
2023/02/16 08:02:19;;;;;;;11.98;11.15;;;;;;;;;;4998454;28;20033;-58
2023/02/16 08:04:45;;;;;;;14.50;13.48;;;;;;;;;;4994096;28;20069;-59
2023/02/16 08:07:16;;;;;;;12.43;11.57;;;;;;;;;;4998058;28;20049;-59
2023/02/16 08:09:41;;;;;;;13.13;12.10;;;;;;;;;;4995568;28;20030;-58
2023/02/16 08:12:12;;;;;;;14.63;13.00;;;;;;;;;;4998529;28;20173;-59
2023/02/16 08:14:37;;;;;;;12.93;12.03;;;;;;;;;;4992661;28;20127;-59
2023/02/16 08:17:04;;;;;;;15.75;12.80;;;;;;;;;;4995614;28;20101;-58
2023/02/16 08:19:30;;;;;;;14.20;13.02;;;;;;;;;;4993800;28;20513;-58
2023/02/16 08:21:57;;;;;;;14.10;12.30;;;;;;;;;;4994548;28;20037;-58
2023/02/16 08:24:23;;;;;;;14.60;13.23;;;;;;;;;;4993667;28;20048;-59
2023/02/16 08:26:51;;;;;;;14.23;13.13;;;;;;;;;;4996785;28;20621;-58
2023/02/16 08:29:18;;;;;;;15.23;13.88;;;;;;;;;;5002817;28;20049;-58
2023/02/16 08:31:45;;;;;;;13.48;12.38;;;;;;;;;;4992216;28;20038;-58
2023/02/16 08:34:12;;;;;;;15.13;13.93;;;;;;;;;;4995962;28;20046;-57
2023/02/16 08:36:39;;;;;;;13.48;12.25;;;;;;;;;;4993109;28;20027;-58
2023/02/16 08:39:14;;;;;;;13.82;12.75;;;;;;;;;;4996414;28;20460;-57
2023/02/16 08:41:39;;;;;;;14.15;13.23;;;;;;;;;;4995031;28;20173;-58
2023/02/16 08:44:07;;;;;;;12.30;11.40;;;;;;;;;;4995318;28;20116;-58
2023/02/16 08:46:33;;;;;;;13.38;12.27;;;;;;;;;;4995842;28;20053;-58
2023/02/16 08:49:00;;;;;;;11.75;10.85;;;;;;;;;;4997447;28;20038;-57
2023/02/16 08:51:28;;;;;;;14.50;13.13;;;;;;;;;;4994653;28;20042;-58
2023/02/16 08:53:54;;;;;;;12.73;11.48;;;;;;;;;;4994295;28;20053;-57
2023/02/16 08:56:20;;;;;;;14.38;13.13;;;;;;;;;;4996346;28;20030;-57
2023/02/16 08:58:45;;;;;;;13.63;12.45;;;;;;;;;;4993845;28;20053;-57
2023/02/16 09:01:12;;;;;;;13.93;12.57;;;;;;;;;;4993448;28;20349;-58
2023/02/16 09:03:42;;;;;;;11.90;11.10;;;;;;;;;;4993993;28;20038;-57
2023/02/16 09:06:09;;;;;;;13.55;12.52;;;;;;;;;;4996678;28;20136;-57
2023/02/16 09:08:37;;;;;;;12.25;11.30;;;;;;;;;;4997115;28;20034;-58
2023/02/16 09:11:08;;;;;;;13.52;12.30;;;;;;;;;;4994215;28;20101;-57
2023/02/16 09:13:34;;;;;;;12.77;11.88;;;;;;;;;;4997987;28;20177;-58
2023/02/16 09:16:11;;;;;;;12.10;11.27;;;;;;;;;;4990190;28;20050;-58
2023/02/16 09:18:38;;;;;;;14.43;13.30;;;;;;;;;;4994006;28;20034;-58
2023/02/16 09:21:10;;;;;;;13.82;12.70;;;;;;;;;;4994931;28;20033;-57
2023/02/16 09:23:40;;;;;;;12.77;11.82;;;;;;;;;;4993026;28;20030;-57
2023/02/16 09:26:06;;;;;;;11.93;11.05;;;;;;;;;;4991872;28;20109;-57
2023/02/16 09:28:36;;;;;;;13.50;12.40;;;;;;;;;;4995808;28;20045;-57
2023/02/16 09:31:12;;;;;;;12.95;11.95;;;;;;;;;;4993997;28;20026;-58
2023/02/16 09:33:39;;;;;;;12.43;11.63;;;;;;;;;;4994508;28;20034;-58
2023/02/16 09:36:10;;;;;;;12.70;11.00;;;;;;;;;;4993439;28;20066;-58
2023/02/16 09:38:38;;;;;;;12.38;11.40;;;;;;;;;;4995858;28;20049;-58
2023/02/16 09:41:31;;;;;;;11.70;10.73;;;;;;;;;;4992178;28;20041;-59
2023/02/16 09:44:08;;;;;;;13.77;12.65;;;;;;;;;;4995066;28;20903;-57
2023/02/16 09:46:35;;;;;;;10.57;9.88;;;;;;;;;;4994775;28;20052;-58
2023/02/16 09:49:03;;;;;;;13.23;12.07;;;;;;;;;;4995525;28;20041;-58
2023/02/16 09:51:36;;;;;;;12.95;12.02;;;;;;;;;;4995145;28;20595;-58
2023/02/16 09:54:25;;;;;;;13.38;12.27;;;;;;;;;;4994220;28;20074;-58
2023/02/16 09:56:58;;;;;;;13.00;11.73;;;;;;;;;;4994324;28;20033;-58
2023/02/16 09:59:35;;;;;;;12.65;11.68;;;;;;;;;;4995005;28;20034;-58
2023/02/16 10:02:31;;;;;;;13.65;12.65;;;;;;;;;;4999825;28;20133;-58
2023/02/16 10:05:16;;;;;;;14.93;13.63;;;;;;;;;;4987752;28;20050;-58
2023/02/16 10:07:56;;;;;;;12.35;11.40;;;;;;;;;;4992236;28;20104;-58
2023/02/16 10:10:37;;;;;;;14.30;13.25;;;;;;;;;;4994449;28;20064;-58
2023/02/16 10:13:15;;;;;;;15.13;11.10;;;;;;;;;;4994528;28;20111;-58
2023/02/16 10:15:44;;;;;;;12.32;11.27;;;;;;;;;;4993159;28;20276;-58
2023/02/16 10:18:28;;;;;;;13.32;12.15;;;;;;;;;;4996348;28;20738;-58
2023/02/16 10:20:55;;;;;;;20.35;18.70;;;;;;;;;;4994947;28;20050;-59
2023/02/16 10:24:04;;;;;;;14.63;13.40;;;;;;;;;;4991060;28;20447;-58
2023/02/16 10:26:36;;;;;;;11.77;10.98;;;;;;;;;;4938443;28;20512;-59
2023/02/16 10:29:17;;;;;;;15.05;13.90;;;;;;;;;;4980916;28;20046;-60
2023/02/16 10:32:24;;;;;;;16.42;14.15;;;;;;;;;;4990722;28;20041;-59
2023/02/16 10:35:23;;;;;;;12.52;11.73;;;;;;;;;;4960529;28;20073;-59
2023/02/16 10:37:58;;;;;;;15.35;14.00;;;;;;;;;;4986603;28;20046;-58
2023/02/16 10:40:26;;;;;;;12.98;12.07;;;;;;;;;;4993301;28;20046;-58
2023/02/16 10:43:06;;;;;;;13.70;12.65;;;;;;;;;;4992897;28;20033;-58
2023/02/16 10:45:55;;;;;;;11.82;11.02;;;;;;;;;;4994688;28;20030;-58
2023/02/16 10:48:21;;;;;;;13.32;12.32;;;;;;;;;;4995504;28;20100;-54
2023/02/16 10:51:01;;;;;;;13.57;12.48;;;;;;;;;;4992010;28;20049;-54
2023/02/16 10:53:30;;;;;;;13.45;12.30;;;;;;;;;;4993934;28;20042;-54
2023/02/16 10:55:56;;;;;;;15.10;13.75;;;;;;;;;;4994083;28;20069;-54
2023/02/16 10:58:33;;;;;;;16.23;15.02;;;;;;;;;;4992587;28;20448;-54
2023/02/16 11:01:19;;;;;;;14.82;13.80;;;;;;;;;;4993661;28;20042;-55
2023/02/16 11:03:48;;;;;;;15.57;14.48;;;;;;;;;;4992853;28;20049;-56
2023/02/16 11:06:23;;;;;;;16.10;14.88;;;;;;;;;;4994843;28;20096;-54
2023/02/16 11:08:50;;;;;;;15.10;14.13;;;;;;;;;;4993163;28;20115;-55
2023/02/16 11:11:18;;;;;;;16.70;15.48;;;;;;;;;;4991965;28;20046;-53
2023/02/16 11:13:47;;;;;;;17.40;16.23;;;;;;;;;;4989784;28;20052;-55
2023/02/16 11:16:19;;;;;;;17.50;16.13;;;;;;;;;;4989017;28;20037;-54
2023/02/16 11:18:54;;;;;;;19.40;17.67;;;;;;;;;;4993335;28;20080;-55
2023/02/16 11:21:20;;;;;;;16.65;15.32;;;;;;;;;;4991829;28;20042;-52
2023/02/16 11:23:57;;;;;;;15.38;14.38;;;;;;;;;;4994525;28;20072;-55
2023/02/16 11:26:25;;;;;;;15.27;14.27;;;;;;;;;;4989535;28;20089;-59
2023/02/16 11:28:51;;;;;;;16.23;15.13;;;;;;;;;;4992866;28;20038;-60
2023/02/16 11:31:30;;;;;;;17.63;16.35;;;;;;;;;;4994277;28;20033;-55
2023/02/16 11:34:10;;;;;;;18.63;17.13;;;;;;;;;;4997068;28;20048;-54
2023/02/16 11:36:43;;;;;;;17.63;16.40;;;;;;;;;;4995526;28;20376;-53
2023/02/16 11:39:26;;;;;;;17.50;16.38;;;;;;;;;;4999027;28;20526;-54
2023/02/16 11:41:56;;;;;;;16.98;15.70;;;;;;;;;;4994963;28;20134;-54
2023/02/16 11:44:45;;;;;;;16.30;15.20;;;;;;;;;;4999736;28;20057;-55
2023/02/16 11:47:34;;;;;;;16.77;15.52;;;;;;;;;;4994815;28;20048;-55
2023/02/16 11:50:25;;;;;;;17.50;16.08;;;;;;;;;;4998187;28;20042;-55
2023/02/16 11:53:14;;;;;;;17.10;15.88;;;;;;;;;;4998180;28;20050;-55
2023/02/16 11:55:42;;;;;;;16.45;15.45;;;;;;;;;;4993792;28;20532;-54
2023/02/16 11:58:18;;;;;;;15.90;13.80;;;;;;;;;;4997310;28;20133;-54
2023/02/16 12:01:09;;;;;;;18.58;17.25;;;;;;;;;;4996064;28;20125;-56
2023/02/16 12:03:53;;;;;;;16.92;15.82;;;;;;;;;;4995325;28;20045;-55
2023/02/16 12:06:30;;;;;;;16.88;15.32;;;;;;;;;;4993698;28;20077;-55
2023/02/16 12:09:35;;;;;;;17.02;15.80;;;;;;;;;;4994369;28;20044;-55
2023/02/16 12:12:29;;;;;;;16.65;15.15;;;;;;;;;;4990513;28;20128;-54
2023/02/16 12:15:07;;;;;;;14.82;13.82;;;;;;;;;;4995170;28;20108;-56
2023/02/16 12:17:46;;;;;;;14.98;13.93;;;;;;;;;;4995613;28;20042;-55
2023/02/16 12:20:30;;;;;;;16.08;15.05;;;;;;;;;;4996382;28;20158;-55
2023/02/16 12:23:22;;;;;;;18.35;16.98;;;;;;;;;;4999625;28;20452;-55
2023/02/16 12:25:59;;;;;;;;;;;;;;;;;;4989254;28;20046;-56
2023/02/16 12:29:02;;;;;;;17.73;16.42;;;;;;;;;;4995231;28;19917;-56
2023/02/16 12:32:06;;;;;;;17.17;15.45;;;;;;;;;;4994882;28;20521;-54
2023/02/16 12:34:56;;;;;;;17.02;15.40;;;;;;;;;;4995595;28;20069;-54
2023/02/16 12:37:40;;;;;;;15.63;14.55;;;;;;;;;;4997544;28;20058;-54
2023/02/16 12:40:08;;;;;;;14.98;13.85;;;;;;;;;;4996497;28;20042;-55
2023/02/16 12:42:33;;;;;;;15.82;14.52;;;;;;;;;;4995180;28;20033;-56
2023/02/16 12:45:05;;;;;;;16.20;14.73;;;;;;;;;;4994647;28;20435;-56
2023/02/16 12:47:43;;;;;;;16.02;14.55;;;;;;;;;;4995206;28;20042;-56
2023/02/16 12:50:27;;;;;;;15.13;13.90;;;;;;;;;;4993515;28;20094;-56
2023/02/16 12:52:59;;;;;;;15.90;14.73;;;;;;;;;;4998056;28;20062;-55
2023/02/16 12:55:37;;;;;;;;;;;;;;;;;;4994793;28;20405;-56
2023/02/16 12:58:14;;;;;;;14.95;13.43;;;;;;;;;;4994145;28;20237;-55
2023/02/16 13:00:51;;;;;;;15.63;14.32;;;;;;;;;;4995029;28;20035;-56
2023/02/16 13:03:35;;;;;;;14.93;13.73;;;;;;;;;;4995248;28;20048;-57
2023/02/16 13:06:13;;;;;;;16.73;15.43;;;;;;;;;;4994413;28;20121;-52
2023/02/16 13:08:45;;;;;;;16.05;14.95;;;;;;;;;;4995243;28;20150;-54
2023/02/16 13:11:29;;;;;;;16.45;15.02;;;;;;;;;;4994594;28;20041;-58
2023/02/16 13:13:59;;;;;;;16.42;15.13;;;;;;;;;;4993512;28;20491;-58
2023/02/16 13:16:45;;;;;;;17.30;16.10;;;;;;;;;;4995208;28;20033;-58
2023/02/16 13:19:12;;;;;;;14.18;13.18;;;;;;;;;;4993855;28;20387;-54
2023/02/16 13:22:05;;;;;;;14.60;13.40;;;;;;;;;;4991491;28;20460;-53
2023/02/16 13:24:52;;;;;;;14.63;13.52;;;;;;;;;;4988210;28;20053;-58
2023/02/16 13:27:52;;;;;;;15.45;14.13;;;;;;;;;;4992501;28;20034;-57
2023/02/16 13:30:47;;;;;;;16.27;15.02;;;;;;;;;;4993558;28;20033;-58
2023/02/16 13:33:41;;;;;;;15.88;14.57;;;;;;;;;;4996781;28;20049;-58
2023/02/16 13:36:28;;;;;;;14.20;13.18;;;;;;;;;;4994333;28;20042;-58
2023/02/16 13:39:24;;;;;;;15.00;13.95;;;;;;;;;;4995274;28;20080;-54
2023/02/16 13:42:04;;;;;;;15.63;14.30;;;;;;;;;;4993265;28;20038;-52
2023/02/16 13:44:44;;;;;;;15.77;14.50;;;;;;;;;;4996705;28;20042;-57
2023/02/16 13:47:19;;;;;;;16.25;14.82;;;;;;;;;;4996365;28;20053;-58
2023/02/16 13:49:45;;;;;;;14.35;13.25;;;;;;;;;;4994392;28;20045;-58
2023/02/16 13:52:38;;;;;;;15.45;14.30;;;;;;;;;;4992545;28;20030;-51
2023/02/16 13:55:26;;;;;;;16.77;15.30;;;;;;;;;;4989124;28;20041;-58
2023/02/16 13:58:00;;;;;;;18.13;16.63;;;;;;;;;;4993195;28;20042;-54
2023/02/16 14:00:35;;;;;;;14.30;13.27;;;;;;;;;;5002501;28;20038;-51
2023/02/16 14:03:09;;;;;;;15.20;14.00;;;;;;;;;;4993590;28;20038;-58
2023/02/16 14:05:55;;;;;;;16.27;14.75;;;;;;;;;;4996669;28;20590;-57
2023/02/16 14:08:28;;;;;;;20.08;15.60;;;;;;;;;;4993623;28;20567;-58
2023/02/16 14:10:59;;;;;;;14.90;13.70;;;;;;;;;;4994587;28;20135;-58
2023/02/16 14:13:37;;;;;;;18.10;16.48;;;;;;;;;;4993783;28;20133;-54
2023/02/16 14:16:32;;;;;;;15.88;14.68;;;;;;;;;;4993910;28;20034;-58
2023/02/16 14:19:17;;;;;;;14.45;13.52;;;;;;;;;;4988485;28;20046;-58
2023/02/16 14:21:47;;;;;;;16.60;15.38;;;;;;;;;;4994532;28;20036;-58
2023/02/16 14:24:25;;;;;;;16.13;15.02;;;;;;;;;;4995772;28;20049;-53
2023/02/16 14:27:00;;;;;;;17.42;16.13;;;;;;;;;;4989928;28;20038;-59
2023/02/16 14:29:42;;;;;;;15.48;14.23;;;;;;;;;;4994388;28;20641;-58
2023/02/16 14:32:08;;;;;;;15.80;14.65;;;;;;;;;;4995802;28;20109;-55
2023/02/16 14:34:47;;;;;;;17.83;16.08;;;;;;;;;;4992511;28;20121;-53
2023/02/16 14:37:15;;;;;;;15.73;14.23;;;;;;;;;;4993937;28;20431;-55
2023/02/16 14:39:42;;;;;;;16.25;14.73;;;;;;;;;;4996707;28;20057;-54
2023/02/16 14:42:21;;;;;;;13.55;12.65;;;;;;;;;;4985769;28;20038;-55
2023/02/16 14:45:02;;;;;;;16.50;15.10;;;;;;;;;;4987897;28;20168;-54
2023/02/16 14:47:46;;;;;;;;;;;;;;;;;;4993336;28;20038;-60
2023/02/16 14:50:30;;;;;;;15.60;14.50;;;;;;;;;;4992422;28;19917;-60
2023/02/16 14:53:06;;;;;;;15.63;14.30;;;;;;;;;;4991657;28;20070;-60
2023/02/16 14:55:46;;;;;;;17.20;15.80;;;;;;;;;;4993939;28;20472;-60
2023/02/16 14:58:24;;;;;;;16.38;15.10;;;;;;;;;;4994063;28;20137;-60
2023/02/16 15:01:13;;;;;;;16.05;14.75;;;;;;;;;;4992359;28;20147;-60
2023/02/16 15:03:49;;;;;;;14.70;13.68;;;;;;;;;;4992750;28;20039;-60
2023/02/16 15:06:24;;;;;;;17.83;16.38;;;;;;;;;;4991316;28;20410;-60
2023/02/16 15:08:57;;;;;;;17.58;16.15;;;;;;;;;;4999405;28;20029;-61
2023/02/16 15:11:34;;;;;;;16.40;15.18;;;;;;;;;;5001711;28;20034;-60
2023/02/16 15:14:09;;;;;;;14.27;13.13;;;;;;;;;;5014987;28;20053;-60
2023/02/16 15:16:39;;;;;;;17.02;15.60;;;;;;;;;;4999814;28;20030;-60
2023/02/16 15:19:10;;;;;;;15.15;14.10;;;;;;;;;;4998909;28;20372;-61
2023/02/16 15:21:36;;;;;;;18.15;16.50;;;;;;;;;;5006406;28;20360;-60
2023/02/16 15:24:04;;;;;;;15.55;14.45;;;;;;;;;;4999797;28;20026;-61
2023/02/16 15:26:33;;;;;;;16.63;15.20;;;;;;;;;;5002271;28;20030;-60
2023/02/16 15:29:04;;;;;;;18.17;16.73;;;;;;;;;;5000187;28;20157;-61